Time;durP1;ratioP1;P1;durP2;ratioP2;P2;SDS_P1;SDS_P2;PMS_P1;PMS_P2;Temp;Humidity;BMP_temperature;BMP_pressure;BME280_temperature;BME280_humidity;BME280_pressure;Samples;Min_cycle;Max_cycle;Signal;HPM_P1;HPM_P2
2022/05/21 00:01:58;;;;;;;10.30;5.10;;;;;;;13.72;61.36;98880.40;109384;1274;22465;-64
2022/05/21 00:04:26;;;;;;;10.80;4.80;;;;;;;13.73;61.59;98885.92;109267;1274;138463;-63
2022/05/21 00:06:55;;;;;;;8.30;3.90;;;;;;;13.73;61.64;98885.21;106190;1274;26192;-63
2022/05/21 00:09:24;;;;;;;6.60;4.20;;;;;;;13.73;61.54;98882.25;104891;1275;138565;-63
2022/05/21 00:11:51;;;;;;;11.30;3.90;;;;;;;13.73;61.77;98884.83;109320;1274;23417;-63
2022/05/21 00:14:20;;;;;;;8.60;4.50;;;;;;;13.74;61.79;98887.02;109382;1274;22420;-64
2022/05/21 00:16:49;;;;;;;8.30;4.60;;;;;;;13.75;61.74;98885.20;109288;1274;140610;-63
2022/05/21 00:19:17;;;;;;;8.30;4.60;;;;;;;13.77;61.66;98874.70;109401;1274;22424;-63
2022/05/21 00:21:45;;;;;;;9.20;4.80;;;;;;;13.80;61.69;98873.58;109240;1274;138690;-63
2022/05/21 00:24:13;;;;;;;7.50;4.50;;;;;;;13.84;61.80;98874.90;109344;1274;22414;-64
2022/05/21 00:26:41;;;;;;;15.40;5.70;;;;;;;13.88;62.01;98870.34;109431;1274;22434;-63
2022/05/21 00:29:10;;;;;;;6.90;4.70;;;;;;;13.92;61.92;98867.17;109252;1274;138469;-63
2022/05/21 00:31:38;;;;;;;8.00;4.50;;;;;;;13.96;62.21;98868.59;109327;1274;23249;-64
2022/05/21 00:34:06;;;;;;;7.60;4.80;;;;;;;13.98;62.30;98867.14;109177;1274;139687;-63
2022/05/21 00:36:36;;;;;;;8.10;4.30;;;;;;;14.00;62.40;98862.54;109297;1275;23771;-63
2022/05/21 00:39:04;;;;;;;9.40;4.20;;;;;;;14.02;62.34;98860.38;109309;1276;22446;-63
2022/05/21 00:41:32;;;;;;;12.00;4.10;;;;;;;14.04;62.35;98865.06;109215;1275;138167;-63
2022/05/21 00:44:00;;;;;;;16.30;4.40;;;;;;;14.06;62.70;98864.98;109331;1274;22627;-63
2022/05/21 00:46:31;;;;;;;6.50;3.70;;;;;;;14.06;62.72;98859.46;109200;1274;138145;-64
2022/05/21 00:49:20;;;;;;;10.90;4.00;;;;;;;14.07;62.66;98863.00;109335;1275;22446;-63
2022/05/21 00:52:03;;;;;;;8.90;4.00;;;;;;;14.08;62.95;98866.93;108728;1276;430672;-63
2022/05/21 00:56:19;;;;;;;7.90;4.10;;;;;;;14.13;63.12;98867.35;101868;1309;545813;-64
2022/05/21 01:01:48;;;;;;;7.20;4.20;;;;;;;14.14;63.23;98869.89;103793;1286;24703;-63
2022/05/21 01:04:16;;;;;;;12.10;4.30;;;;;;;14.14;63.28;98871.71;103886;1286;137153;-63
2022/05/21 01:06:45;;;;;;;19.30;5.00;;;;;;;14.13;63.59;98869.74;108222;1286;23507;-65
2022/05/21 01:09:13;;;;;;;13.50;4.00;;;;;;;14.14;63.74;98866.55;108080;1286;227035;-63
2022/05/21 01:11:41;;;;;;;10.20;3.80;;;;;;;14.14;63.71;98864.96;108443;1284;22451;-64
2022/05/21 01:14:10;;;;;;;6.60;4.40;;;;;;;14.12;63.98;98865.73;108442;1284;23228;-64
2022/05/21 01:16:38;;;;;;;7.00;4.30;;;;;;;14.13;64.01;98871.03;108254;1285;139435;-64
2022/05/21 01:19:07;;;;;;;11.70;4.10;;;;;;;14.13;64.22;98872.67;108408;1285;22526;-64
2022/05/21 01:21:36;;;;;;;7.10;3.80;;;;;;;14.14;64.36;98869.58;108315;1284;139415;-64
2022/05/21 01:24:06;;;;;;;7.90;3.90;;;;;;;14.15;64.55;98869.33;108478;1285;22284;-64
2022/05/21 01:26:34;;;;;;;7.20;3.90;;;;;;;14.17;64.84;98871.43;108417;1284;23331;-64
2022/05/21 01:29:04;;;;;;;6.90;3.90;;;;;;;14.19;64.75;98866.83;108363;1284;138756;-64
2022/05/21 01:31:32;;;;;;;6.80;3.80;;;;;;;14.21;64.93;98866.95;108387;1284;22456;-64
2022/05/21 01:34:01;;;;;;;6.00;4.40;;;;;;;14.23;65.03;98865.05;108352;1284;137980;-64
2022/05/21 01:36:30;;;;;;;12.60;4.00;;;;;;;14.25;65.02;98866.67;108467;1284;22472;-64
2022/05/21 01:38:58;;;;;;;5.40;3.70;;;;;;;14.28;65.28;98861.38;108459;1284;22534;-64
2022/05/21 01:41:27;;;;;;;8.40;4.20;;;;;;;14.31;65.20;98859.92;108333;1284;139029;-65
2022/05/21 01:46:41;;;;;;;7.20;4.20;;;;;;;14.38;65.16;98858.23;108367;1284;138988;-64
2022/05/21 01:49:10;;;;;;;6.70;3.20;;;;;;;14.41;65.19;98859.10;108409;1283;22595;-64
2022/05/21 01:51:38;;;;;;;8.40;4.40;;;;;;;14.46;65.29;98857.31;108318;1285;138400;-64
2022/05/21 01:54:06;;;;;;;8.60;4.10;;;;;;;14.49;65.21;98857.81;108464;1284;22553;-64
2022/05/21 01:56:34;;;;;;;9.10;4.30;;;;;;;14.52;65.19;98852.73;108425;1284;22485;-65
2022/05/21 01:59:02;;;;;;;9.10;3.70;;;;;;;14.55;65.20;98853.29;108236;1285;136929;-65
2022/05/21 02:01:30;;;;;;;8.10;4.60;;;;;;;14.55;65.28;98845.98;108469;1284;22441;-65
2022/05/21 02:03:58;;;;;;;9.50;4.30;;;;;;;14.59;65.29;98846.23;108320;1284;137770;-65
2022/05/21 02:06:27;;;;;;;4.60;3.60;;;;;;;14.59;65.34;98841.13;108459;1284;22453;-64
2022/05/21 02:08:57;;;;;;;6.50;4.00;;;;;;;14.60;65.31;98843.04;108436;1284;22590;-64
2022/05/21 02:11:26;;;;;;;8.80;4.20;;;;;;;14.59;65.36;98838.84;108364;1283;137861;-64
2022/05/21 02:13:56;;;;;;;8.90;4.40;;;;;;;14.61;65.57;98840.92;108419;1284;22461;-64
2022/05/21 02:16:24;;;;;;;10.30;4.30;;;;;;;14.63;65.60;98839.98;108316;1284;137787;-64
2022/05/21 02:18:52;;;;;;;8.90;5.10;;;;;;;14.63;65.57;98841.50;109219;1277;23234;-64
2022/05/21 02:21:20;;;;;;;9.10;3.80;;;;;;;14.65;65.70;98841.86;109065;1277;137792;-65
2022/05/21 02:23:49;;;;;;;6.80;3.90;;;;;;;14.66;65.84;98845.63;109179;1277;22481;-64
2022/05/21 02:26:17;;;;;;;10.80;4.10;;;;;;;14.67;65.97;98842.65;109154;1276;23358;-65
2022/05/21 02:28:45;;;;;;;13.90;4.40;;;;;;;14.69;65.99;98841.09;109139;1276;138335;-65
2022/05/21 02:31:13;;;;;;;6.90;4.30;;;;;;;14.71;65.97;98835.63;109223;1276;23185;-64
2022/05/21 02:33:41;;;;;;;9.60;4.90;;;;;;;14.73;65.90;98836.65;109087;1276;137800;-65
2022/05/21 02:36:10;;;;;;;11.90;4.20;;;;;;;14.76;65.93;98839.13;109202;1277;25526;-64
2022/05/21 02:41:24;;;;;;;8.80;5.00;;;;;;;14.82;66.01;98837.44;109068;1277;139615;-64
2022/05/21 02:43:53;;;;;;;15.10;4.90;;;;;;;14.86;66.01;98838.89;109193;1276;22455;-65
2022/05/21 02:46:21;;;;;;;5.80;4.10;;;;;;;14.90;65.91;98843.48;109123;1277;138061;-64
2022/05/21 02:48:49;;;;;;;14.00;4.80;;;;;;;14.93;65.96;98846.27;109162;1276;22484;-64
2022/05/21 02:51:17;;;;;;;8.00;4.40;;;;;;;14.97;66.02;98837.61;109122;1277;138839;-64
2022/05/21 02:53:46;;;;;;;9.30;4.60;;;;;;;15.00;66.07;98835.36;109212;1276;22434;-65
2022/05/21 02:56:14;;;;;;;6.80;4.50;;;;;;;15.03;66.12;98830.13;109038;1277;22447;-64
2022/05/21 02:58:42;;;;;;;10.50;4.70;;;;;;;15.07;66.05;98831.54;109070;1276;138959;-65
2022/05/21 03:01:12;;;;;;;8.00;4.70;;;;;;;15.09;66.09;98828.95;109203;1276;23966;-65
2022/05/21 03:03:40;;;;;;;11.80;4.70;;;;;;;15.12;66.00;98836.61;109079;1277;137915;-64
2022/05/21 03:06:08;;;;;;;5.90;3.90;;;;;;;15.12;65.97;98829.68;109197;1276;22482;-65
2022/05/21 03:11:23;;;;;;;8.10;4.40;;;;;;;15.16;66.00;98824.00;109058;1277;137414;-65
2022/05/21 03:13:51;;;;;;;9.60;4.70;;;;;;;15.17;66.11;98824.19;109282;1277;22517;-64
2022/05/21 03:16:19;;;;;;;7.10;4.80;;;;;;;15.17;66.04;98818.64;109108;1277;139191;-64
2022/05/21 03:18:47;;;;;;;9.80;4.90;;;;;;;15.16;66.15;98813.22;109282;1277;23164;-64
2022/05/21 03:21:15;;;;;;;9.20;4.60;;;;;;;15.20;66.09;98813.33;109058;1277;139480;-64
2022/05/21 03:23:46;;;;;;;7.90;4.80;;;;;;;15.23;66.22;98808.39;109217;1277;22464;-64
2022/05/21 03:26:14;;;;;;;6.10;4.30;;;;;;;15.26;66.38;98809.98;109066;1277;22427;-64
2022/05/21 03:28:43;;;;;;;13.50;4.70;;;;;;;15.29;66.41;98808.39;109123;1277;139344;-64
2022/05/21 03:31:11;;;;;;;8.10;4.80;;;;;;;15.32;66.42;98813.89;109224;1276;22425;-64
2022/05/21 03:33:39;;;;;;;6.90;3.80;;;;;;;15.35;66.52;98809.33;109119;1277;137841;-65
2022/05/21 03:36:08;;;;;;;8.70;4.40;;;;;;;15.39;66.50;98804.15;107378;1277;23867;-64
2022/05/21 03:38:37;;;;;;;6.10;4.10;;;;;;;15.43;66.54;98800.11;104924;1278;22608;-64
2022/05/21 03:41:05;;;;;;;7.80;4.80;;;;;;;15.46;66.49;98795.88;104802;1278;138293;-64
2022/05/21 03:43:34;;;;;;;12.20;4.70;;;;;;;15.52;66.52;98798.10;104784;1277;25102;-64
2022/05/21 03:46:04;;;;;;;6.80;4.40;;;;;;;15.56;66.40;98796.64;104783;1278;138034;-64
2022/05/21 03:48:33;;;;;;;9.20;4.90;;;;;;;15.61;66.53;98797.59;109055;1279;22454;-65
2022/05/21 03:51:01;;;;;;;9.90;4.50;;;;;;;15.65;66.56;98799.65;109241;1277;22479;-65
2022/05/21 03:53:29;;;;;;;7.90;4.10;;;;;;;15.71;66.68;98794.25;109065;1277;138865;-64
2022/05/21 03:55:58;;;;;;;7.90;4.20;;;;;;;15.77;66.68;98778.88;109245;1277;22417;-65
2022/05/21 03:58:26;;;;;;;8.10;4.50;;;;;;;15.83;66.64;98772.83;108923;1277;138220;-65
2022/05/21 04:00:54;;;;;;;8.80;4.80;;;;;;;15.90;66.72;98768.48;109246;1277;22466;-65
2022/05/21 04:03:24;;;;;;;8.60;4.80;;;;;;;15.97;66.67;98767.00;109101;1277;139633;-65
2022/05/21 04:05:56;;;;;;;6.90;4.60;;;;;;;16.01;66.56;98748.71;109217;1277;23233;-65
2022/05/21 04:08:26;;;;;;;7.90;4.20;;;;;;;16.09;66.49;98750.60;109192;1276;22450;-64
2022/05/21 04:10:54;;;;;;;10.40;4.10;;;;;;;16.18;66.53;98752.72;109094;1276;138776;-65
2022/05/21 04:13:22;;;;;;;9.70;3.70;;;;;;;16.25;66.41;98757.48;109221;1277;22464;-65
2022/05/21 04:15:52;;;;;;;13.10;5.20;;;;;;;16.32;66.29;98757.44;109065;1277;138653;-65
2022/05/21 04:18:20;;;;;;;12.40;4.30;;;;;;;16.38;66.17;98761.74;109217;1277;22492;-65
2022/05/21 04:20:48;;;;;;;9.10;5.10;;;;;;;16.43;66.12;98770.09;109209;1277;22464;-65
2022/05/21 04:23:16;;;;;;;13.00;4.40;;;;;;;16.46;65.98;98760.13;108966;1277;137780;-65
2022/05/21 04:25:44;;;;;;;9.20;4.90;;;;;;;16.49;65.76;98761.48;109195;1277;23085;-65
2022/05/21 04:28:19;;;;;;;10.80;4.50;;;;;;;16.53;65.61;98758.98;109060;1276;137094;-65
2022/05/21 04:30:48;;;;;;;8.90;4.20;;;;;;;16.56;65.56;98765.38;109215;1277;22434;-65
2022/05/21 04:33:16;;;;;;;8.20;4.50;;;;;;;16.60;65.55;98764.30;109104;1277;138864;-65
2022/05/21 04:38:33;;;;;;;11.80;4.50;;;;;;;16.75;65.34;98769.02;109187;1276;22435;-65
2022/05/21 04:41:01;;;;;;;8.40;4.40;;;;;;;16.82;65.36;98761.67;109152;1277;138314;-65
2022/05/21 04:43:30;;;;;;;10.30;4.70;;;;;;;16.90;65.13;98765.58;109216;1276;23211;-65
2022/05/21 04:46:01;;;;;;;13.80;4.50;;;;;;;16.96;64.85;98759.52;109114;1277;138136;-65
2022/05/21 04:48:30;;;;;;;11.10;5.10;;;;;;;17.03;64.69;98756.56;109211;1277;22645;-65
2022/05/21 04:50:59;;;;;;;13.30;4.80;;;;;;;17.11;64.77;98754.10;109184;1277;22449;-65
2022/05/21 04:53:29;;;;;;;11.10;4.30;;;;;;;17.18;64.78;98753.14;109082;1277;138425;-65
2022/05/21 04:55:57;;;;;;;10.90;5.00;;;;;;;17.27;64.63;98748.12;109247;1277;22274;-65
2022/05/21 04:58:25;;;;;;;12.30;4.80;;;;;;;17.37;64.44;98738.73;109137;1277;138944;-65
2022/05/21 05:00:54;;;;;;;8.20;4.30;;;;;;;17.47;64.14;98740.89;109287;1277;23554;-65
2022/05/21 05:03:22;;;;;;;7.40;4.80;;;;;;;17.58;64.16;98734.71;109168;1276;139190;-64
2022/05/21 05:05:50;;;;;;;9.40;4.50;;;;;;;17.70;63.69;98729.91;109205;1277;22637;-65
2022/05/21 05:08:19;;;;;;;14.10;4.70;;;;;;;17.83;63.76;98722.11;109222;1277;22565;-65
2022/05/21 05:10:47;;;;;;;13.90;4.50;;;;;;;18.03;63.54;98723.09;109172;1277;137365;-65
2022/05/21 05:13:16;;;;;;;11.50;4.90;;;;;;;18.28;62.87;98725.38;109235;1277;22425;-65
2022/05/21 05:15:44;;;;;;;10.20;4.60;;;;;;;18.57;62.16;98723.84;109145;1277;137656;-65
2022/05/21 05:18:14;;;;;;;7.70;4.40;;;;;;;18.86;61.58;98718.52;109112;1277;22244;-65
2022/05/21 05:20:42;;;;;;;14.70;4.90;;;;;;;19.12;61.05;98713.35;109200;1277;23281;-65
2022/05/21 05:23:11;;;;;;;10.80;4.70;;;;;;;19.35;60.15;98714.60;109145;1276;137631;-65
2022/05/21 05:25:39;;;;;;;5.20;3.80;;;;;;;19.58;59.56;98710.85;109220;1276;22502;-65
2022/05/21 05:28:18;;;;;;;8.20;4.50;;;;;;;19.79;59.02;98707.77;109105;1277;137386;-65
2022/05/21 05:30:47;;;;;;;11.60;4.90;;;;;;;20.01;58.60;98703.51;109205;1277;22402;-65
2022/05/21 05:33:17;;;;;;;7.90;4.20;;;;;;;20.23;57.96;98710.14;109129;1277;138291;-65
2022/05/21 05:35:48;;;;;;;13.30;5.10;;;;;;;20.39;57.36;98700.28;109254;1277;23151;-65
2022/05/21 05:38:16;;;;;;;11.10;4.20;;;;;;;20.52;57.09;98697.25;109248;1276;23243;-65
2022/05/21 05:40:45;;;;;;;6.10;4.70;;;;;;;20.62;57.02;98696.67;109141;1277;138879;-65
2022/05/21 05:43:14;;;;;;;9.20;4.20;;;;;;;20.71;56.60;98692.19;109241;1277;23424;-65
2022/05/21 05:45:42;;;;;;;11.70;4.80;;;;;;;20.73;56.18;98693.02;108913;1277;137685;-65
2022/05/21 05:48:12;;;;;;;8.50;4.90;;;;;;;20.70;56.16;98689.64;109244;1276;22433;-65
2022/05/21 05:50:39;;;;;;;10.90;4.70;;;;;;;20.66;56.23;98688.15;109193;1277;22457;-65
2022/05/21 05:53:08;;;;;;;11.60;4.80;;;;;;;20.62;56.50;98682.34;109150;1277;137636;-65
2022/05/21 05:55:36;;;;;;;11.30;4.60;;;;;;;20.58;56.46;98681.02;108994;1277;22285;-66
2022/05/21 05:59:48;;;;;;;10.70;5.20;;;;;;;20.53;56.61;98681.48;108922;1277;137545;-65
2022/05/21 06:00:52;;;;;;;8.80;4.40;;;;;;;20.48;56.84;98675.06;109059;1277;22444;-65
2022/05/21 06:03:21;;;;;;;10.20;4.70;;;;;;;20.42;56.87;98670.37;108964;1277;137596;-65
2022/05/21 06:05:50;;;;;;;15.70;4.90;;;;;;;20.36;57.02;98666.48;109090;1275;23208;-65
2022/05/21 06:08:21;;;;;;;9.50;5.40;;;;;;;20.31;57.47;98663.42;109025;1277;22496;-65
2022/05/21 06:10:50;;;;;;;8.50;5.30;;;;;;;20.29;57.56;98661.25;109006;1277;139367;-65
2022/05/21 06:13:18;;;;;;;6.50;4.40;;;;;;;20.27;57.67;98661.34;109106;1277;23491;-65
2022/05/21 06:15:47;;;;;;;12.70;5.70;;;;;;;20.25;58.02;98662.89;107833;1277;138246;-65
2022/05/21 06:18:16;;;;;;;7.00;4.80;;;;;;;20.25;58.06;98660.41;109011;1277;23383;-66
2022/05/21 06:20:45;;;;;;;11.10;5.50;;;;;;;20.24;58.12;98659.11;109051;1277;22523;-65
2022/05/21 06:23:13;;;;;;;14.60;4.80;;;;;;;20.24;58.22;98655.64;108935;1278;138421;-65
2022/05/21 06:25:42;;;;;;;8.90;4.30;;;;;;;20.23;58.26;98656.40;109036;1278;23231;-65
2022/05/21 06:28:10;;;;;;;10.90;5.10;;;;;;;20.23;58.38;98652.20;108936;1277;137906;-65
2022/05/21 06:30:40;;;;;;;11.10;5.00;;;;;;;20.23;58.34;98649.98;109016;1278;23644;-65
2022/05/21 06:33:17;;;;;;;15.50;5.30;;;;;;;20.22;58.25;98649.38;109050;1277;22531;-65
2022/05/21 06:35:47;;;;;;;11.50;4.70;;;;;;;20.21;58.05;98652.52;108939;1277;138455;-65
2022/05/21 06:38:15;;;;;;;9.70;4.90;;;;;;;20.20;57.86;98658.10;109056;1277;22539;-65
2022/05/21 06:40:43;;;;;;;10.40;5.70;;;;;;;20.19;58.07;98662.48;108998;1277;138409;-65
2022/05/21 06:43:13;;;;;;;16.90;5.20;;;;;;;20.17;58.37;98657.36;108957;1279;22422;-65
2022/05/21 06:45:41;;;;;;;15.80;5.30;;;;;;;20.19;58.36;98668.27;108950;1278;138945;-65
2022/05/21 06:48:10;;;;;;;7.60;4.60;;;;;;;20.19;58.47;98662.61;108988;1278;22485;-65
2022/05/21 06:50:39;;;;;;;10.20;4.70;;;;;;;20.19;58.24;98657.70;109043;1277;22474;-65
2022/05/21 06:53:07;;;;;;;10.30;4.60;;;;;;;20.21;58.24;98653.15;108946;1278;138132;-65
2022/05/21 06:55:37;;;;;;;10.30;5.10;;;;;;;20.24;58.28;98650.24;109195;1277;22545;-65
2022/05/21 06:58:06;;;;;;;12.80;5.70;;;;;;;20.28;58.52;98648.89;109128;1276;138344;-65
2022/05/21 07:00:34;;;;;;;11.90;4.80;;;;;;;20.31;57.93;98648.23;109164;1276;22426;-65
2022/05/21 07:03:02;;;;;;;7.60;5.00;;;;;;;20.34;57.59;98645.32;109211;1277;22440;-65
2022/05/21 07:08:19;;;;;;;9.50;4.30;;;;;;;20.38;57.32;98636.73;109157;1276;22501;-65
2022/05/21 07:10:49;;;;;;;6.70;4.60;;;;;;;20.41;57.18;98637.67;109104;1276;137998;-65
2022/05/21 07:13:18;;;;;;;10.80;5.40;;;;;;;20.42;57.42;98638.60;109215;1277;23251;-65
2022/05/21 07:15:48;;;;;;;11.10;4.40;;;;;;;20.44;57.56;98634.48;109127;1276;137702;-65
2022/05/21 07:18:17;;;;;;;9.20;5.00;;;;;;;20.48;57.79;98638.46;109168;1277;22472;-65
2022/05/21 07:20:46;;;;;;;5.20;4.30;;;;;;;20.52;57.77;98628.46;109262;1277;22431;-65
2022/05/21 07:23:14;;;;;;;7.30;4.50;;;;;;;20.54;57.81;98613.73;109096;1277;138046;-65
2022/05/21 07:25:43;;;;;;;27.80;6.70;;;;;;;20.60;57.82;98616.33;109195;1277;22401;-64
2022/05/21 07:28:12;;;;;;;18.10;5.00;;;;;;;20.66;57.57;98613.50;109106;1276;137733;-64
2022/05/21 07:30:42;;;;;;;8.30;4.50;;;;;;;20.71;57.70;98612.95;109164;1276;22430;-64
2022/05/21 07:33:13;;;;;;;12.30;4.70;;;;;;;20.77;57.90;98606.98;109244;1277;22445;-64
2022/05/21 07:35:41;;;;;;;9.30;4.80;;;;;;;20.82;57.76;98599.23;109054;1277;138369;-64
2022/05/21 07:38:11;;;;;;;14.00;4.70;;;;;;;20.88;57.88;98597.58;109147;1277;22427;-64
2022/05/21 07:40:44;;;;;;;6.20;4.70;;;;;;;20.93;57.44;98593.21;109087;1277;138426;-65
2022/05/21 07:43:16;;;;;;;6.60;4.60;;;;;;;20.96;56.96;98587.60;109192;1277;22493;-65
2022/05/21 07:45:44;;;;;;;8.20;4.70;;;;;;;20.96;56.78;98583.59;109062;1277;138507;-65
2022/05/21 07:48:14;;;;;;;5.10;4.40;;;;;;;20.97;56.76;98582.04;109248;1276;23164;-65
2022/05/21 07:50:44;;;;;;;8.70;4.50;;;;;;;20.99;56.73;98571.59;109244;1277;22422;-65
2022/05/21 07:53:14;;;;;;;5.50;4.20;;;;;;;21.04;56.92;98569.91;109086;1277;137764;-65
2022/05/21 07:55:44;;;;;;;6.70;4.30;;;;;;;21.10;56.53;98566.23;109224;1277;22464;-65
2022/05/21 07:58:12;;;;;;;7.70;4.40;;;;;;;21.17;56.65;98566.20;109144;1276;137646;-65
2022/05/21 08:00:40;;;;;;;8.20;4.50;;;;;;;21.25;56.25;98559.38;109186;1276;23528;-65
2022/05/21 08:03:08;;;;;;;9.60;5.10;;;;;;;21.32;56.16;98554.46;109211;1275;23542;-66
2022/05/21 08:05:38;;;;;;;11.00;4.50;;;;;;;21.40;55.58;98554.52;109045;1276;139236;-65
2022/05/21 08:08:09;;;;;;;8.50;4.30;;;;;;;21.48;55.30;98556.35;109197;1276;23117;-66
2022/05/21 08:10:39;;;;;;;7.40;4.10;;;;;;;21.56;55.10;98554.26;109111;1277;137806;-66
2022/05/21 08:13:07;;;;;;;9.20;5.00;;;;;;;21.62;55.40;98556.95;109194;1277;23209;-66
2022/05/21 08:15:35;;;;;;;10.00;4.40;;;;;;;21.70;54.94;98553.54;109166;1276;137501;-66
2022/05/21 08:18:04;;;;;;;12.50;4.20;;;;;;;21.77;54.71;98556.41;109218;1276;23616;-65
2022/05/21 08:20:33;;;;;;;7.80;5.00;;;;;;;21.84;54.64;98555.00;109222;1276;22422;-65
2022/05/21 08:28:37;;;;;;;9.20;5.20;;;;;;;22.08;54.41;98550.20;109079;1276;137365;-65
2022/05/21 08:31:05;;;;;;;9.90;3.90;;;;;;;22.16;54.15;98542.87;109179;1276;23556;-65
2022/05/21 08:33:35;;;;;;;7.20;3.90;;;;;;;22.24;53.51;98539.27;109067;1276;138807;-65
2022/05/21 08:36:03;;;;;;;7.70;3.70;;;;;;;22.31;52.98;98535.80;109198;1276;22404;-66
2022/05/21 08:38:31;;;;;;;6.70;4.50;;;;;;;22.39;52.74;98532.16;109186;1276;22442;-65
2022/05/21 08:41:10;;;;;;;10.00;3.40;;;;;;;22.45;52.41;98535.58;109080;1276;138477;-65
2022/05/21 08:44:02;;;;;;;12.40;3.80;;;;;;;22.52;51.81;98533.98;109198;1276;22456;-65
2022/05/21 08:47:01;;;;;;;4.80;3.60;;;;;;;22.58;51.63;98532.95;109016;1277;138707;-65
2022/05/21 08:49:37;;;;;;;6.30;3.90;;;;;;;22.65;51.13;98529.85;109133;1276;22427;-65
2022/05/21 08:52:21;;;;;;;10.40;4.10;;;;;;;22.70;50.82;98530.50;109075;1277;138378;-65
2022/05/21 08:54:50;;;;;;;6.80;3.60;;;;;;;22.74;50.93;98525.53;109105;1277;22545;-65
2022/05/21 08:57:27;;;;;;;9.00;4.00;;;;;;;22.78;51.46;98522.73;109062;1277;22551;-65
2022/05/21 09:00:07;;;;;;;9.60;3.40;;;;;;;22.82;50.73;98521.93;109046;1277;137278;-65
2022/05/21 09:02:36;;;;;;;8.20;3.70;;;;;;;22.86;50.65;98518.14;109210;1276;23273;-66
2022/05/21 09:05:06;;;;;;;5.50;3.50;;;;;;;22.92;50.77;98517.63;109031;1277;137905;-65
2022/05/21 09:08:04;;;;;;;8.60;3.90;;;;;;;22.98;50.28;98517.58;109159;1277;22459;-65
2022/05/21 09:11:04;;;;;;;4.80;3.10;;;;;;;23.02;49.63;98514.83;108980;1277;138970;-65
2022/05/21 09:13:35;;;;;;;4.60;3.30;;;;;;;23.02;49.50;98509.66;109180;1277;22427;-66
2022/05/21 09:18:50;;;;;;;4.50;2.90;;;;;;;22.99;49.49;98503.48;109130;1276;22493;-65
2022/05/21 09:21:20;;;;;;;6.20;3.50;;;;;;;22.96;49.49;98503.23;109164;1276;22457;-65
2022/05/21 09:23:59;;;;;;;6.60;3.60;;;;;;;22.90;49.70;98512.92;109068;1277;138682;-65
2022/05/21 09:26:41;;;;;;;8.30;3.80;;;;;;;22.84;49.77;98524.74;109185;1276;22439;-65
2022/05/21 09:29:28;;;;;;;8.70;3.70;;;;;;;22.75;49.54;98535.73;108917;1277;138566;-65
2022/05/21 09:31:56;;;;;;;;;;;;;;;22.64;49.83;98549.35;109202;1277;22436;-65
2022/05/21 09:34:32;;;;;;;11.00;4.20;;;;;;;22.53;51.66;98570.11;109075;1276;123895;-65
2022/05/21 09:37:01;;;;;;;;;;;;;;;22.30;54.24;98577.39;109163;1276;23350;-65
2022/05/21 09:39:34;;;;;;;14.20;4.20;;;;;;;22.01;55.58;98577.03;109181;1276;22431;-65
2022/05/21 09:45:21;;;;;;;9.50;4.60;;;;;;;21.70;56.83;98592.65;109089;1277;137288;-65
2022/05/21 09:45:24;;;;;;;8.10;4.50;;;;;;;21.37;58.98;98591.32;109216;1277;22437;-65
2022/05/21 09:48:01;;;;;;;8.10;4.80;;;;;;;21.05;60.67;98584.83;109065;1277;137267;-64
2022/05/21 09:50:29;;;;;;;;;;;;;;;20.73;62.08;98583.77;109185;1277;22445;-65
2022/05/21 09:52:57;;;;;;;7.50;5.80;;;;;;;20.45;63.42;98573.91;109086;1277;124364;-65
2022/05/21 09:55:27;;;;;;;9.90;4.90;;;;;;;20.21;64.59;98568.52;108706;1276;22672;-64
2022/05/21 09:58:09;;;;;;;6.40;4.60;;;;;;;20.00;65.88;98566.31;104592;1278;139494;-64
2022/05/21 10:00:39;;;;;;;10.00;5.30;;;;;;;19.80;67.23;98564.84;104681;1278;24025;-64
2022/05/21 10:03:08;;;;;;;12.00;4.90;;;;;;;19.62;68.23;98561.98;104784;1276;24134;-65
2022/05/21 10:05:42;;;;;;;6.10;5.00;;;;;;;19.48;69.40;98553.81;104688;1278;138487;-64
2022/05/21 10:11:40;;;;;;;9.20;6.10;;;;;;;19.19;71.56;98554.66;104695;1277;138591;-64
2022/05/21 10:14:17;;;;;;;13.30;5.70;;;;;;;19.05;72.42;98541.80;108832;1279;22428;-65
2022/05/21 10:16:55;;;;;;;9.30;5.50;;;;;;;18.96;73.12;98549.75;108656;1280;151855;-65
2022/05/21 10:19:35;;;;;;;13.00;5.50;;;;;;;18.86;73.82;98552.30;108663;1281;22470;-65
2022/05/21 10:22:06;;;;;;;10.70;6.10;;;;;;;18.77;74.67;98549.73;108785;1280;138827;-65
2022/05/21 10:24:54;;;;;;;9.20;6.20;;;;;;;18.70;75.46;98534.10;108856;1279;23276;-65
2022/05/21 10:28:10;;;;;;;9.70;5.80;;;;;;;18.64;76.21;98521.86;104584;1282;22564;-64
2022/05/21 10:30:44;;;;;;;8.50;6.00;;;;;;;18.57;76.53;98506.85;104569;1280;23082;-64
2022/05/21 10:33:24;;;;;;;13.10;7.10;;;;;;;18.51;77.16;98500.63;108825;1279;23222;-65
2022/05/21 10:36:29;;;;;;;11.70;6.70;;;;;;;18.47;77.74;98497.16;108645;1281;140123;-65
2022/05/21 10:39:16;;;;;;;10.10;6.40;;;;;;;18.43;78.30;98492.91;108710;1280;22498;-65
2022/05/21 10:42:08;;;;;;;9.70;6.50;;;;;;;18.38;78.60;98467.83;108718;1280;138381;-65
2022/05/21 10:44:59;;;;;;;11.40;6.60;;;;;;;18.35;78.97;98473.42;108819;1280;23588;-65
2022/05/21 10:47:55;;;;;;;10.70;6.70;;;;;;;18.29;79.33;98480.54;108578;1281;139108;-65
2022/05/21 10:50:31;;;;;;;10.00;6.90;;;;;;;18.25;79.85;98502.36;108811;1281;22447;-65
2022/05/21 10:53:18;;;;;;;10.60;6.80;;;;;;;18.23;80.09;98497.98;108966;1278;138143;-65
2022/05/21 10:55:57;;;;;;;12.50;7.50;;;;;;;18.20;80.41;98487.71;109172;1277;22434;-65
2022/05/21 10:58:47;;;;;;;13.00;7.00;;;;;;;18.17;80.71;98475.79;109079;1276;140155;-65
2022/05/21 11:01:20;;;;;;;12.00;7.30;;;;;;;18.15;80.99;98460.52;109163;1277;22457;-66
2022/05/21 11:04:01;;;;;;;10.80;6.70;;;;;;;18.15;81.39;98456.41;109159;1276;22515;-66
2022/05/21 11:06:37;;;;;;;13.10;6.70;;;;;;;18.16;81.96;98447.41;108969;1277;138123;-65
2022/05/21 11:09:23;;;;;;;7.20;6.20;;;;;;;18.20;82.28;98456.35;109076;1277;22915;-66
2022/05/21 11:11:58;;;;;;;12.60;6.80;;;;;;;18.24;82.83;98440.61;108983;1277;139779;-66
2022/05/21 11:14:40;;;;;;;9.10;6.20;;;;;;;18.31;83.22;98434.61;109045;1277;22441;-65
2022/05/21 11:17:46;;;;;;;9.30;7.30;;;;;;;18.42;83.58;98431.23;109081;1276;139114;-65
2022/05/21 11:20:20;;;;;;;7.80;5.70;;;;;;;18.54;83.97;98424.91;109198;1276;22408;-65
2022/05/21 11:23:07;;;;;;;10.20;5.40;;;;;;;18.65;83.95;98422.04;108974;1277;139066;-65
2022/05/21 11:25:43;;;;;;;10.10;5.50;;;;;;;18.79;83.31;98425.62;109231;1276;22535;-65
2022/05/21 11:28:35;;;;;;;8.20;5.80;;;;;;;18.90;83.21;98423.64;108973;1277;138796;-65
2022/05/21 11:31:07;;;;;;;10.60;5.20;;;;;;;19.00;82.80;98411.33;109209;1276;22464;-65
2022/05/21 11:39:13;;;;;;;8.70;5.80;;;;;;;19.19;80.84;98385.62;109155;1277;22442;-65
2022/05/21 11:41:53;;;;;;;11.30;6.10;;;;;;;19.25;80.97;98385.55;108988;1276;138803;-65
2022/05/21 11:47:08;;;;;;;11.60;5.50;;;;;;;19.31;79.54;98384.02;109027;1276;138204;-65
2022/05/21 11:49:59;;;;;;;7.70;5.30;;;;;;;19.29;79.00;98378.17;109168;1277;22505;-65
2022/05/21 11:52:28;;;;;;;9.10;5.40;;;;;;;19.27;78.84;98373.84;109018;1277;138816;-65
2022/05/21 11:55:01;;;;;;;8.20;5.00;;;;;;;19.25;78.44;98365.31;109215;1276;22453;-65
2022/05/21 11:57:47;;;;;;;9.50;6.30;;;;;;;19.22;78.05;98361.25;109176;1276;23716;-65
2022/05/21 12:00:15;;;;;;;7.90;5.50;;;;;;;19.20;78.25;98357.59;109031;1277;137975;-65
2022/05/21 12:02:54;;;;;;;12.70;6.40;;;;;;;19.19;78.46;98351.16;109209;1277;23274;-65
2022/05/21 12:05:34;;;;;;;9.10;6.10;;;;;;;19.19;78.72;98345.48;109056;1276;138790;-65
2022/05/21 12:08:25;;;;;;;15.20;6.20;;;;;;;19.19;78.93;98340.74;109123;1277;22522;-65
2022/05/21 12:11:11;;;;;;;8.80;5.70;;;;;;;19.18;79.02;98338.29;109063;1276;139290;-66
2022/05/21 12:14:06;;;;;;;8.20;5.40;;;;;;;19.21;78.88;98333.29;109201;1277;23302;-66
2022/05/21 12:16:35;;;;;;;9.70;5.80;;;;;;;19.26;79.11;98324.66;109105;1276;139857;-66
2022/05/21 12:19:05;;;;;;;8.20;5.30;;;;;;;19.34;79.61;98316.39;109151;1277;23207;-66
2022/05/21 12:21:35;;;;;;;9.20;5.60;;;;;;;19.47;79.37;98313.44;109108;1277;22549;-66